sensor_id;sensor_type;location;lat;lon;timestamp;pressure;altitude;pressure_sealevel;temperature;humidity
29815;BME280;16708;50.426;7.664;2022-07-19T00:00:23;991.10;;;19.65;51.94
29815;BME280;16708;50.426;7.664;2022-07-19T00:05:17;991.09;;;19.54;51.54
29815;BME280;16708;50.426;7.664;2022-07-19T00:10:12;991.00;;;19.36;52.43
29815;BME280;16708;50.426;7.664;2022-07-19T00:15:07;991.03;;;19.30;53.29
29815;BME280;16708;50.426;7.664;2022-07-19T00:20:01;990.99;;;19.25;53.51
29815;BME280;16708;50.426;7.664;2022-07-19T00:24:56;990.99;;;19.23;51.16
29815;BME280;16708;50.426;7.664;2022-07-19T00:29:50;991.00;;;19.14;52.54
29815;BME280;16708;50.426;7.664;2022-07-19T00:34:45;991.02;;;19.06;52.04
29815;BME280;16708;50.426;7.664;2022-07-19T00:39:40;991.01;;;18.84;53.04
29815;BME280;16708;50.426;7.664;2022-07-19T00:44:35;990.97;;;18.74;55.60
29815;BME280;16708;50.426;7.664;2022-07-19T00:49:30;990.97;;;18.59;55.94
29815;BME280;16708;50.426;7.664;2022-07-19T00:54:25;991.01;;;18.55;55.84
29815;BME280;16708;50.426;7.664;2022-07-19T00:59:19;991.05;;;18.49;56.50
29815;BME280;16708;50.426;7.664;2022-07-19T01:04:14;990.90;;;18.45;57.56
29815;BME280;16708;50.426;7.664;2022-07-19T01:09:09;990.95;;;18.39;58.41
29815;BME280;16708;50.426;7.664;2022-07-19T01:18:58;990.99;;;18.22;60.31
29815;BME280;16708;50.426;7.664;2022-07-19T01:23:53;991.04;;;18.22;59.15
29815;BME280;16708;50.426;7.664;2022-07-19T01:28:47;991.02;;;18.25;58.20
29815;BME280;16708;50.426;7.664;2022-07-19T01:33:42;991.03;;;18.06;58.58
29815;BME280;16708;50.426;7.664;2022-07-19T01:38:36;991.03;;;17.95;57.95
29815;BME280;16708;50.426;7.664;2022-07-19T01:43:31;991.04;;;17.91;58.70
29815;BME280;16708;50.426;7.664;2022-07-19T01:48:26;991.04;;;17.81;59.17
29815;BME280;16708;50.426;7.664;2022-07-19T01:53:20;990.96;;;17.83;57.40
29815;BME280;16708;50.426;7.664;2022-07-19T01:58:15;990.94;;;17.85;57.97
29815;BME280;16708;50.426;7.664;2022-07-19T02:03:10;990.86;;;17.74;56.95
29815;BME280;16708;50.426;7.664;2022-07-19T02:08:05;990.94;;;17.69;59.31
29815;BME280;16708;50.426;7.664;2022-07-19T02:12:59;990.84;;;17.55;59.43
29815;BME280;16708;50.426;7.664;2022-07-19T02:17:55;990.83;;;17.48;61.38
29815;BME280;16708;50.426;7.664;2022-07-19T02:22:49;990.83;;;17.40;62.34
29815;BME280;16708;50.426;7.664;2022-07-19T02:27:43;990.79;;;17.27;62.55
29815;BME280;16708;50.426;7.664;2022-07-19T02:32:38;990.75;;;17.27;62.22
29815;BME280;16708;50.426;7.664;2022-07-19T02:37:33;990.64;;;17.17;62.13
29815;BME280;16708;50.426;7.664;2022-07-19T02:42:28;990.68;;;17.11;64.07
29815;BME280;16708;50.426;7.664;2022-07-19T02:47:23;990.67;;;17.09;63.01
29815;BME280;16708;50.426;7.664;2022-07-19T02:52:18;990.63;;;17.08;63.29
29815;BME280;16708;50.426;7.664;2022-07-19T02:57:13;990.60;;;16.90;64.04
29815;BME280;16708;50.426;7.664;2022-07-19T03:02:07;990.58;;;16.86;63.59
29815;BME280;16708;50.426;7.664;2022-07-19T03:07:00;990.59;;;16.85;64.68
29815;BME280;16708;50.426;7.664;2022-07-19T03:11:54;990.61;;;16.81;62.75
29815;BME280;16708;50.426;7.664;2022-07-19T03:16:49;990.58;;;16.76;62.45
29815;BME280;16708;50.426;7.664;2022-07-19T03:21:45;990.68;;;16.76;64.19
29815;BME280;16708;50.426;7.664;2022-07-19T03:26:39;990.62;;;16.71;65.08
29815;BME280;16708;50.426;7.664;2022-07-19T03:31:33;990.64;;;16.67;65.40
29815;BME280;16708;50.426;7.664;2022-07-19T03:36:28;990.61;;;16.72;64.29
29815;BME280;16708;50.426;7.664;2022-07-19T03:41:23;990.64;;;16.62;65.36
29815;BME280;16708;50.426;7.664;2022-07-19T03:46:17;990.68;;;16.62;64.59
29815;BME280;16708;50.426;7.664;2022-07-19T03:51:13;990.74;;;16.66;65.53
29815;BME280;16708;50.426;7.664;2022-07-19T03:56:07;990.72;;;16.58;65.66
29815;BME280;16708;50.426;7.664;2022-07-19T04:01:02;990.78;;;16.55;65.70
29815;BME280;16708;50.426;7.664;2022-07-19T04:05:56;990.77;;;16.59;66.69
29815;BME280;16708;50.426;7.664;2022-07-19T04:10:50;990.77;;;16.56;68.11
29815;BME280;16708;50.426;7.664;2022-07-19T04:15:45;990.81;;;16.58;68.52
29815;BME280;16708;50.426;7.664;2022-07-19T04:20:39;990.84;;;16.59;69.43
29815;BME280;16708;50.426;7.664;2022-07-19T04:25:34;990.82;;;16.66;70.24
29815;BME280;16708;50.426;7.664;2022-07-19T04:30:29;990.84;;;16.68;70.15
29815;BME280;16708;50.426;7.664;2022-07-19T04:35:23;990.89;;;16.89;69.89
29815;BME280;16708;50.426;7.664;2022-07-19T04:40:18;990.83;;;17.01;71.16
29815;BME280;16708;50.426;7.664;2022-07-19T04:45:13;990.86;;;17.21;71.95
29815;BME280;16708;50.426;7.664;2022-07-19T04:50:07;990.79;;;17.31;72.46
29815;BME280;16708;50.426;7.664;2022-07-19T04:55:02;990.88;;;17.66;68.86
29815;BME280;16708;50.426;7.664;2022-07-19T04:59:57;990.80;;;17.75;68.24
29815;BME280;16708;50.426;7.664;2022-07-19T05:04:52;990.77;;;17.98;67.81
29815;BME280;16708;50.426;7.664;2022-07-19T05:09:46;990.80;;;18.38;65.81
29815;BME280;16708;50.426;7.664;2022-07-19T05:14:41;990.75;;;18.69;66.03
29815;BME280;16708;50.426;7.664;2022-07-19T05:19:35;990.69;;;18.97;63.89
29815;BME280;16708;50.426;7.664;2022-07-19T05:24:30;990.74;;;19.13;64.26
29815;BME280;16708;50.426;7.664;2022-07-19T05:29:26;990.77;;;19.42;62.78
29815;BME280;16708;50.426;7.664;2022-07-19T05:34:20;990.73;;;19.57;64.67
29815;BME280;16708;50.426;7.664;2022-07-19T05:39:15;990.77;;;19.79;64.51
29815;BME280;16708;50.426;7.664;2022-07-19T05:44:09;990.72;;;20.13;59.51
29815;BME280;16708;50.426;7.664;2022-07-19T05:49:04;990.71;;;20.48;57.43
29815;BME280;16708;50.426;7.664;2022-07-19T05:53:59;990.69;;;20.76;55.80
29815;BME280;16708;50.426;7.664;2022-07-19T05:58:54;990.82;;;21.03;58.46
29815;BME280;16708;50.426;7.664;2022-07-19T06:03:49;990.86;;;21.17;58.26
29815;BME280;16708;50.426;7.664;2022-07-19T06:08:52;990.86;;;21.31;56.35
29815;BME280;16708;50.426;7.664;2022-07-19T06:13:36;990.78;;;21.64;56.17
29815;BME280;16708;50.426;7.664;2022-07-19T06:18:31;990.82;;;21.92;53.88
29815;BME280;16708;50.426;7.664;2022-07-19T06:23:25;990.78;;;22.22;54.09
29815;BME280;16708;50.426;7.664;2022-07-19T06:28:20;990.80;;;22.44;53.99
29815;BME280;16708;50.426;7.664;2022-07-19T06:33:15;990.74;;;22.65;54.16
29815;BME280;16708;50.426;7.664;2022-07-19T06:38:10;990.73;;;22.82;56.14
29815;BME280;16708;50.426;7.664;2022-07-19T06:43:05;990.75;;;23.11;52.76
29815;BME280;16708;50.426;7.664;2022-07-19T06:48:00;990.74;;;23.43;52.77
29815;BME280;16708;50.426;7.664;2022-07-19T06:52:55;990.74;;;23.63;50.96
29815;BME280;16708;50.426;7.664;2022-07-19T06:57:50;990.80;;;23.76;49.57
29815;BME280;16708;50.426;7.664;2022-07-19T07:02:45;990.82;;;23.89;46.99
29815;BME280;16708;50.426;7.664;2022-07-19T07:07:40;990.74;;;24.15;46.76
29815;BME280;16708;50.426;7.664;2022-07-19T07:12:35;990.74;;;24.41;47.98
29815;BME280;16708;50.426;7.664;2022-07-19T07:17:30;990.78;;;24.50;47.79
29815;BME280;16708;50.426;7.664;2022-07-19T07:22:24;990.77;;;24.97;48.86
29815;BME280;16708;50.426;7.664;2022-07-19T07:27:20;990.78;;;25.07;47.35
29815;BME280;16708;50.426;7.664;2022-07-19T07:32:14;990.80;;;25.31;46.10
29815;BME280;16708;50.426;7.664;2022-07-19T07:37:10;990.76;;;25.66;45.12
29815;BME280;16708;50.426;7.664;2022-07-19T07:42:04;990.81;;;25.92;45.41
29815;BME280;16708;50.426;7.664;2022-07-19T07:46:59;990.72;;;26.11;45.76
29815;BME280;16708;50.426;7.664;2022-07-19T07:51:53;990.80;;;26.64;44.43
29815;BME280;16708;50.426;7.664;2022-07-19T07:56:48;990.74;;;26.81;44.28
29815;BME280;16708;50.426;7.664;2022-07-19T08:01:43;990.74;;;27.28;44.11
29815;BME280;16708;50.426;7.664;2022-07-19T08:06:38;990.69;;;27.85;41.53
29815;BME280;16708;50.426;7.664;2022-07-19T08:11:33;990.68;;;28.01;41.25
29815;BME280;16708;50.426;7.664;2022-07-19T08:16:28;990.59;;;28.32;39.92
29815;BME280;16708;50.426;7.664;2022-07-19T08:21:23;990.59;;;28.85;35.14
29815;BME280;16708;50.426;7.664;2022-07-19T08:26:18;990.66;;;29.23;31.98
29815;BME280;16708;50.426;7.664;2022-07-19T08:31:12;990.65;;;29.59;31.88
29815;BME280;16708;50.426;7.664;2022-07-19T08:36:07;990.49;;;29.81;30.72
29815;BME280;16708;50.426;7.664;2022-07-19T08:41:02;990.52;;;30.22;30.86
29815;BME280;16708;50.426;7.664;2022-07-19T08:45:57;990.45;;;30.43;29.60
29815;BME280;16708;50.426;7.664;2022-07-19T08:50:51;990.43;;;30.58;27.57
29815;BME280;16708;50.426;7.664;2022-07-19T08:55:46;990.44;;;30.86;27.03
29815;BME280;16708;50.426;7.664;2022-07-19T09:00:42;990.42;;;31.31;27.51
29815;BME280;16708;50.426;7.664;2022-07-19T09:10:30;990.32;;;31.83;25.34
29815;BME280;16708;50.426;7.664;2022-07-19T09:15:25;990.28;;;31.63;24.00
29815;BME280;16708;50.426;7.664;2022-07-19T09:20:20;990.29;;;32.46;25.09
29815;BME280;16708;50.426;7.664;2022-07-19T09:25:15;990.32;;;32.78;24.28
29815;BME280;16708;50.426;7.664;2022-07-19T09:30:10;990.27;;;33.08;22.73
29815;BME280;16708;50.426;7.664;2022-07-19T09:35:05;990.21;;;32.94;23.47
29815;BME280;16708;50.426;7.664;2022-07-19T09:39:58;990.17;;;33.07;21.61
29815;BME280;16708;50.426;7.664;2022-07-19T09:44:52;990.17;;;33.68;22.13
29815;BME280;16708;50.426;7.664;2022-07-19T09:49:48;990.14;;;33.60;22.33
29815;BME280;16708;50.426;7.664;2022-07-19T09:54:43;990.17;;;34.27;21.05
29815;BME280;16708;50.426;7.664;2022-07-19T09:59:37;990.12;;;35.30;18.54
29815;BME280;16708;50.426;7.664;2022-07-19T10:04:33;990.09;;;36.03;18.17
29815;BME280;16708;50.426;7.664;2022-07-19T10:09:30;990.06;;;36.72;17.24
29815;BME280;16708;50.426;7.664;2022-07-19T10:14:26;989.98;;;36.72;18.13
29815;BME280;16708;50.426;7.664;2022-07-19T10:19:22;990.01;;;37.18;16.30
29815;BME280;16708;50.426;7.664;2022-07-19T10:39:02;989.74;;;37.08;16.53
29815;BME280;16708;50.426;7.664;2022-07-19T10:48:53;989.67;;;37.51;16.51
29815;BME280;16708;50.426;7.664;2022-07-19T11:03:39;989.62;;;38.86;15.41
29815;BME280;16708;50.426;7.664;2022-07-19T11:08:33;989.53;;;39.17;15.33
29815;BME280;16708;50.426;7.664;2022-07-19T11:13:29;989.51;;;40.29;14.21
29815;BME280;16708;50.426;7.664;2022-07-19T11:18:21;989.42;;;39.05;15.04
29815;BME280;16708;50.426;7.664;2022-07-19T11:23:16;989.39;;;39.91;14.03
29815;BME280;16708;50.426;7.664;2022-07-19T11:28:12;989.24;;;40.05;13.74
29815;BME280;16708;50.426;7.664;2022-07-19T11:33:07;989.15;;;39.47;14.15
29815;BME280;16708;50.426;7.664;2022-07-19T11:38:02;989.14;;;40.55;12.06
29815;BME280;16708;50.426;7.664;2022-07-19T11:42:57;989.20;;;40.56;12.10
29815;BME280;16708;50.426;7.664;2022-07-19T11:47:51;989.20;;;39.83;12.80
29815;BME280;16708;50.426;7.664;2022-07-19T11:52:46;989.11;;;40.79;12.25
29815;BME280;16708;50.426;7.664;2022-07-19T11:57:42;989.09;;;40.68;12.67
29815;BME280;16708;50.426;7.664;2022-07-19T12:07:32;989.03;;;40.30;13.36
29815;BME280;16708;50.426;7.664;2022-07-19T12:12:27;989.03;;;41.54;12.17
29815;BME280;16708;50.426;7.664;2022-07-19T12:17:22;989.04;;;42.51;10.98
29815;BME280;16708;50.426;7.664;2022-07-19T12:22:18;988.88;;;41.12;12.43
29815;BME280;16708;50.426;7.664;2022-07-19T12:27:10;988.85;;;40.39;11.84
29815;BME280;16708;50.426;7.664;2022-07-19T12:32:04;988.80;;;40.94;10.90
29815;BME280;16708;50.426;7.664;2022-07-19T12:37:01;988.83;;;40.65;11.58
29815;BME280;16708;50.426;7.664;2022-07-19T12:41:52;988.66;;;42.27;10.64
29815;BME280;16708;50.426;7.664;2022-07-19T12:51:42;988.56;;;41.30;10.83
29815;BME280;16708;50.426;7.664;2022-07-19T12:56:37;988.63;;;43.31;10.65
29815;BME280;16708;50.426;7.664;2022-07-19T13:01:31;988.56;;;42.12;9.89
29815;BME280;16708;50.426;7.664;2022-07-19T13:06:26;988.58;;;43.56;8.44
29815;BME280;16708;50.426;7.664;2022-07-19T13:11:22;988.52;;;42.19;10.20
29815;BME280;16708;50.426;7.664;2022-07-19T13:16:17;988.56;;;41.15;10.25
29815;BME280;16708;50.426;7.664;2022-07-19T13:21:11;988.53;;;41.51;9.41
29815;BME280;16708;50.426;7.664;2022-07-19T13:26:06;988.42;;;41.92;9.77
29815;BME280;16708;50.426;7.664;2022-07-19T13:31:01;988.36;;;42.46;9.57
29815;BME280;16708;50.426;7.664;2022-07-19T13:35:54;988.33;;;42.22;8.75
29815;BME280;16708;50.426;7.664;2022-07-19T13:40:49;988.34;;;42.46;9.46
29815;BME280;16708;50.426;7.664;2022-07-19T13:45:44;988.22;;;42.53;8.64
29815;BME280;16708;50.426;7.664;2022-07-19T13:50:38;988.23;;;41.73;9.57
29815;BME280;16708;50.426;7.664;2022-07-19T13:55:34;988.12;;;43.41;9.03
29815;BME280;16708;50.426;7.664;2022-07-19T14:00:29;988.10;;;43.71;9.15
29815;BME280;16708;50.426;7.664;2022-07-19T14:05:24;988.07;;;43.15;9.20
29815;BME280;16708;50.426;7.664;2022-07-19T14:10:19;988.11;;;41.46;9.26
29815;BME280;16708;50.426;7.664;2022-07-19T14:15:13;987.85;;;42.33;8.49
29815;BME280;16708;50.426;7.664;2022-07-19T14:20:07;987.90;;;42.51;8.09
29815;BME280;16708;50.426;7.664;2022-07-19T14:25:02;987.81;;;42.73;8.70
29815;BME280;16708;50.426;7.664;2022-07-19T14:29:57;987.84;;;41.23;9.24
29815;BME280;16708;50.426;7.664;2022-07-19T14:34:51;987.67;;;41.96;9.03
29815;BME280;16708;50.426;7.664;2022-07-19T14:39:46;987.64;;;43.02;8.63
29815;BME280;16708;50.426;7.664;2022-07-19T14:44:41;987.72;;;43.86;8.38
29815;BME280;16708;50.426;7.664;2022-07-19T14:49:36;987.61;;;43.78;8.81
29815;BME280;16708;50.426;7.664;2022-07-19T14:54:31;987.46;;;42.91;9.90
29815;BME280;16708;50.426;7.664;2022-07-19T14:59:26;987.39;;;43.86;8.95
29815;BME280;16708;50.426;7.664;2022-07-19T15:04:21;987.33;;;43.05;9.81
29815;BME280;16708;50.426;7.664;2022-07-19T15:09:16;987.28;;;42.59;10.24
29815;BME280;16708;50.426;7.664;2022-07-19T15:14:11;987.24;;;43.22;10.43
29815;BME280;16708;50.426;7.664;2022-07-19T15:19:05;987.18;;;43.64;9.75
29815;BME280;16708;50.426;7.664;2022-07-19T15:24:01;987.15;;;43.83;10.01
29815;BME280;16708;50.426;7.664;2022-07-19T15:28:57;987.15;;;44.33;9.58
29815;BME280;16708;50.426;7.664;2022-07-19T15:33:51;987.10;;;42.39;11.08
29815;BME280;16708;50.426;7.664;2022-07-19T15:38:46;987.05;;;43.41;10.53
29815;BME280;16708;50.426;7.664;2022-07-19T15:43:41;987.08;;;42.95;10.66
29815;BME280;16708;50.426;7.664;2022-07-19T15:48:35;987.05;;;42.93;10.29
29815;BME280;16708;50.426;7.664;2022-07-19T15:53:30;986.93;;;42.77;9.64
29815;BME280;16708;50.426;7.664;2022-07-19T15:58:25;986.77;;;42.97;9.19
29815;BME280;16708;50.426;7.664;2022-07-19T16:03:20;986.71;;;42.97;9.12
29815;BME280;16708;50.426;7.664;2022-07-19T16:08:15;986.60;;;43.23;10.06
29815;BME280;16708;50.426;7.664;2022-07-19T16:13:09;986.59;;;42.33;10.13
29815;BME280;16708;50.426;7.664;2022-07-19T16:18:03;986.63;;;42.89;9.78
29815;BME280;16708;50.426;7.664;2022-07-19T16:22:58;986.55;;;43.46;10.13
29815;BME280;16708;50.426;7.664;2022-07-19T16:27:53;986.55;;;43.52;9.97
29815;BME280;16708;50.426;7.664;2022-07-19T16:32:48;986.48;;;43.02;10.09
29815;BME280;16708;50.426;7.664;2022-07-19T16:37:42;986.38;;;42.03;10.73
29815;BME280;16708;50.426;7.664;2022-07-19T16:42:37;986.27;;;43.22;9.86
29815;BME280;16708;50.426;7.664;2022-07-19T16:47:32;986.24;;;42.92;10.21
29815;BME280;16708;50.426;7.664;2022-07-19T16:52:26;986.25;;;41.29;11.02
29815;BME280;16708;50.426;7.664;2022-07-19T16:57:21;986.24;;;42.04;10.68
29815;BME280;16708;50.426;7.664;2022-07-19T17:02:15;986.23;;;41.40;11.34
29815;BME280;16708;50.426;7.664;2022-07-19T17:07:09;986.17;;;41.48;11.17
29815;BME280;16708;50.426;7.664;2022-07-19T17:12:04;986.21;;;41.69;11.33
29815;BME280;16708;50.426;7.664;2022-07-19T17:16:59;986.22;;;41.64;11.32
29815;BME280;16708;50.426;7.664;2022-07-19T17:21:54;986.19;;;42.01;11.51
29815;BME280;16708;50.426;7.664;2022-07-19T17:26:47;986.19;;;41.14;11.81
29815;BME280;16708;50.426;7.664;2022-07-19T17:31:42;986.19;;;41.53;11.99
29815;BME280;16708;50.426;7.664;2022-07-19T17:36:37;986.11;;;41.69;11.68
29815;BME280;16708;50.426;7.664;2022-07-19T17:41:31;986.11;;;40.34;12.52
29815;BME280;16708;50.426;7.664;2022-07-19T17:46:26;986.13;;;40.98;12.01
29815;BME280;16708;50.426;7.664;2022-07-19T17:51:21;986.15;;;41.61;11.73
29815;BME280;16708;50.426;7.664;2022-07-19T17:56:16;986.09;;;41.17;12.41
29815;BME280;16708;50.426;7.664;2022-07-19T18:01:10;986.07;;;40.71;12.78
29815;BME280;16708;50.426;7.664;2022-07-19T18:06:04;986.02;;;40.71;12.84
29815;BME280;16708;50.426;7.664;2022-07-19T18:11:00;986.05;;;40.66;13.05
29815;BME280;16708;50.426;7.664;2022-07-19T18:15:54;986.06;;;39.00;14.35
29815;BME280;16708;50.426;7.664;2022-07-19T18:20:47;986.13;;;38.87;15.03
29815;BME280;16708;50.426;7.664;2022-07-19T18:25:41;986.08;;;38.89;15.02
29815;BME280;16708;50.426;7.664;2022-07-19T18:30:35;986.02;;;38.37;15.20
29815;BME280;16708;50.426;7.664;2022-07-19T18:35:29;985.96;;;38.22;15.47
29815;BME280;16708;50.426;7.664;2022-07-19T18:40:24;985.95;;;38.15;16.91
29815;BME280;16708;50.426;7.664;2022-07-19T18:45:17;985.96;;;37.54;17.32
29815;BME280;16708;50.426;7.664;2022-07-19T18:50:12;985.96;;;36.46;18.43
29815;BME280;16708;50.426;7.664;2022-07-19T18:55:06;985.94;;;35.51;19.37
29815;BME280;16708;50.426;7.664;2022-07-19T19:00:01;985.98;;;33.45;22.27
29815;BME280;16708;50.426;7.664;2022-07-19T19:04:55;985.88;;;32.53;22.73
29815;BME280;16708;50.426;7.664;2022-07-19T19:09:49;985.97;;;31.96;25.20
29815;BME280;16708;50.426;7.664;2022-07-19T19:14:44;986.04;;;31.25;23.99
29815;BME280;16708;50.426;7.664;2022-07-19T19:19:38;986.06;;;30.93;24.68
29815;BME280;16708;50.426;7.664;2022-07-19T19:24:33;986.04;;;30.70;25.61
29815;BME280;16708;50.426;7.664;2022-07-19T19:29:28;986.03;;;30.03;26.40
29815;BME280;16708;50.426;7.664;2022-07-19T19:34:23;986.13;;;29.63;26.57
29815;BME280;16708;50.426;7.664;2022-07-19T19:39:16;986.18;;;29.45;28.39
29815;BME280;16708;50.426;7.664;2022-07-19T19:44:13;986.23;;;29.11;30.57
29815;BME280;16708;50.426;7.664;2022-07-19T19:49:05;986.19;;;28.77;31.23
29815;BME280;16708;50.426;7.664;2022-07-19T19:54:00;986.22;;;28.52;32.03
29815;BME280;16708;50.426;7.664;2022-07-19T19:58:54;986.27;;;28.24;32.14
29815;BME280;16708;50.426;7.664;2022-07-19T20:03:49;986.27;;;27.87;33.71
29815;BME280;16708;50.426;7.664;2022-07-19T20:08:45;986.21;;;27.72;33.59
29815;BME280;16708;50.426;7.664;2022-07-19T20:13:38;986.18;;;27.61;33.08
29815;BME280;16708;50.426;7.664;2022-07-19T20:18:32;986.27;;;27.43;33.65
29815;BME280;16708;50.426;7.664;2022-07-19T20:23:27;986.24;;;27.33;33.93
29815;BME280;16708;50.426;7.664;2022-07-19T20:28:21;986.24;;;27.11;37.64
29815;BME280;16708;50.426;7.664;2022-07-19T20:33:16;986.29;;;27.13;34.94
29815;BME280;16708;50.426;7.664;2022-07-19T20:38:11;986.29;;;26.98;33.90
29815;BME280;16708;50.426;7.664;2022-07-19T20:43:05;986.27;;;26.93;33.67
29815;BME280;16708;50.426;7.664;2022-07-19T20:48:00;986.24;;;26.95;35.73
29815;BME280;16708;50.426;7.664;2022-07-19T20:52:54;986.25;;;26.77;34.78
29815;BME280;16708;50.426;7.664;2022-07-19T20:57:48;986.24;;;26.77;33.40
29815;BME280;16708;50.426;7.664;2022-07-19T21:02:45;986.26;;;26.58;34.12
29815;BME280;16708;50.426;7.664;2022-07-19T21:07:38;986.22;;;26.46;32.31
29815;BME280;16708;50.426;7.664;2022-07-19T21:12:32;986.29;;;26.37;34.24
29815;BME280;16708;50.426;7.664;2022-07-19T21:17:27;986.27;;;26.57;32.48
29815;BME280;16708;50.426;7.664;2022-07-19T21:22:21;986.34;;;26.65;35.38
29815;BME280;16708;50.426;7.664;2022-07-19T21:27:16;986.30;;;26.67;33.24
29815;BME280;16708;50.426;7.664;2022-07-19T21:32:10;986.18;;;26.73;31.14
29815;BME280;16708;50.426;7.664;2022-07-19T21:37:05;986.26;;;26.75;31.93
29815;BME280;16708;50.426;7.664;2022-07-19T21:41:59;986.33;;;26.61;32.41
29815;BME280;16708;50.426;7.664;2022-07-19T21:46:54;986.24;;;26.70;33.48
29815;BME280;16708;50.426;7.664;2022-07-19T21:51:48;986.28;;;26.73;30.84
29815;BME280;16708;50.426;7.664;2022-07-19T21:56:43;986.25;;;26.82;31.15
29815;BME280;16708;50.426;7.664;2022-07-19T22:06:31;986.27;;;27.05;30.16
29815;BME280;16708;50.426;7.664;2022-07-19T22:11:26;986.27;;;27.35;30.21
29815;BME280;16708;50.426;7.664;2022-07-19T22:16:22;986.40;;;27.31;29.45
29815;BME280;16708;50.426;7.664;2022-07-19T22:21:15;986.32;;;27.16;29.95
29815;BME280;16708;50.426;7.664;2022-07-19T22:26:10;986.36;;;27.22;29.57
29815;BME280;16708;50.426;7.664;2022-07-19T22:31:04;986.31;;;27.16;29.82
29815;BME280;16708;50.426;7.664;2022-07-19T22:35:59;986.32;;;27.08;29.62
29815;BME280;16708;50.426;7.664;2022-07-19T22:40:53;986.38;;;26.94;29.92
29815;BME280;16708;50.426;7.664;2022-07-19T22:45:48;986.31;;;26.99;29.76
29815;BME280;16708;50.426;7.664;2022-07-19T22:50:42;986.35;;;26.86;30.29
29815;BME280;16708;50.426;7.664;2022-07-19T22:55:37;986.34;;;26.84;29.42
29815;BME280;16708;50.426;7.664;2022-07-19T23:00:32;986.31;;;26.79;29.92
29815;BME280;16708;50.426;7.664;2022-07-19T23:05:26;986.36;;;26.77;30.46
29815;BME280;16708;50.426;7.664;2022-07-19T23:10:21;986.36;;;26.33;31.71
29815;BME280;16708;50.426;7.664;2022-07-19T23:15:15;986.35;;;25.45;34.76
29815;BME280;16708;50.426;7.664;2022-07-19T23:20:10;986.30;;;25.08;34.31
29815;BME280;16708;50.426;7.664;2022-07-19T23:25:05;986.36;;;24.89;36.21
29815;BME280;16708;50.426;7.664;2022-07-19T23:29:59;986.35;;;24.55;37.12
29815;BME280;16708;50.426;7.664;2022-07-19T23:34:54;986.32;;;24.43;38.22
29815;BME280;16708;50.426;7.664;2022-07-19T23:39:48;986.36;;;24.26;37.72
29815;BME280;16708;50.426;7.664;2022-07-19T23:44:42;986.42;;;24.23;37.23
29815;BME280;16708;50.426;7.664;2022-07-19T23:49:37;986.34;;;24.13;37.08
29815;BME280;16708;50.426;7.664;2022-07-19T23:54:33;986.29;;;23.92;39.18
29815;BME280;16708;50.426;7.664;2022-07-19T23:59:27;986.34;;;23.72;41.25
